sensor_id;sensor_type;location;lat;lon;timestamp;P1;durP1;ratioP1;P2;durP2;ratioP2
5125;SDS011;63008;53.112;8.896;2022-12-20T00:00:50;5.93;;;5.33;;
5125;SDS011;63008;53.112;8.896;2022-12-20T00:02:52;12.20;;;6.97;;
5125;SDS011;63008;53.112;8.896;2022-12-20T00:04:53;8.43;;;5.73;;
5125;SDS011;63008;53.112;8.896;2022-12-20T00:06:54;7.90;;;5.50;;
5125;SDS011;63008;53.112;8.896;2022-12-20T00:08:56;8.50;;;5.87;;
5125;SDS011;63008;53.112;8.896;2022-12-20T00:10:59;10.70;;;5.80;;
5125;SDS011;63008;53.112;8.896;2022-12-20T00:13:02;6.43;;;5.70;;
5125;SDS011;63008;53.112;8.896;2022-12-20T00:15:03;7.70;;;5.67;;
5125;SDS011;63008;53.112;8.896;2022-12-20T00:17:05;6.40;;;5.67;;
5125;SDS011;63008;53.112;8.896;2022-12-20T00:19:06;6.83;;;5.67;;
5125;SDS011;63008;53.112;8.896;2022-12-20T00:21:09;7.67;;;6.10;;
5125;SDS011;63008;53.112;8.896;2022-12-20T00:23:11;10.23;;;5.60;;
5125;SDS011;63008;53.112;8.896;2022-12-20T00:25:12;8.67;;;5.40;;
5125;SDS011;63008;53.112;8.896;2022-12-20T00:27:14;6.73;;;5.23;;
5125;SDS011;63008;53.112;8.896;2022-12-20T00:29:16;10.03;;;5.60;;
5125;SDS011;63008;53.112;8.896;2022-12-20T00:31:19;6.20;;;5.70;;
5125;SDS011;63008;53.112;8.896;2022-12-20T00:33:21;6.20;;;5.30;;
5125;SDS011;63008;53.112;8.896;2022-12-20T00:35:25;8.80;;;5.50;;
5125;SDS011;63008;53.112;8.896;2022-12-20T00:37:26;8.90;;;5.60;;
5125;SDS011;63008;53.112;8.896;2022-12-20T00:39:29;8.40;;;5.80;;
5125;SDS011;63008;53.112;8.896;2022-12-20T00:41:30;7.70;;;5.37;;
5125;SDS011;63008;53.112;8.896;2022-12-20T00:43:33;6.90;;;5.50;;
5125;SDS011;63008;53.112;8.896;2022-12-20T00:45:35;9.07;;;5.70;;
5125;SDS011;63008;53.112;8.896;2022-12-20T00:47:36;6.93;;;5.50;;
5125;SDS011;63008;53.112;8.896;2022-12-20T00:49:37;12.53;;;6.00;;
5125;SDS011;63008;53.112;8.896;2022-12-20T00:51:38;6.20;;;5.50;;
5125;SDS011;63008;53.112;8.896;2022-12-20T00:53:39;12.27;;;5.30;;
5125;SDS011;63008;53.112;8.896;2022-12-20T00:55:44;8.40;;;5.50;;
5125;SDS011;63008;53.112;8.896;2022-12-20T00:57:46;6.00;;;5.00;;
5125;SDS011;63008;53.112;8.896;2022-12-20T00:59:47;6.73;;;5.83;;
5125;SDS011;63008;53.112;8.896;2022-12-20T01:01:48;6.90;;;5.50;;
5125;SDS011;63008;53.112;8.896;2022-12-20T01:03:49;7.83;;;5.90;;
5125;SDS011;63008;53.112;8.896;2022-12-20T01:05:54;7.97;;;5.63;;
5125;SDS011;63008;53.112;8.896;2022-12-20T01:08:00;7.50;;;5.63;;
5125;SDS011;63008;53.112;8.896;2022-12-20T01:10:01;5.93;;;5.23;;
5125;SDS011;63008;53.112;8.896;2022-12-20T01:12:03;7.90;;;5.50;;
5125;SDS011;63008;53.112;8.896;2022-12-20T01:14:06;7.13;;;5.77;;
5125;SDS011;63008;53.112;8.896;2022-12-20T01:16:13;9.13;;;5.57;;
5125;SDS011;63008;53.112;8.896;2022-12-20T01:18:16;11.13;;;5.87;;
5125;SDS011;63008;53.112;8.896;2022-12-20T01:20:17;7.00;;;6.07;;
5125;SDS011;63008;53.112;8.896;2022-12-20T01:22:18;7.20;;;5.63;;
5125;SDS011;63008;53.112;8.896;2022-12-20T01:24:19;5.57;;;4.77;;
5125;SDS011;63008;53.112;8.896;2022-12-20T01:26:21;5.63;;;5.13;;
5125;SDS011;63008;53.112;8.896;2022-12-20T01:28:23;5.90;;;5.27;;
5125;SDS011;63008;53.112;8.896;2022-12-20T01:30:24;12.30;;;5.33;;
5125;SDS011;63008;53.112;8.896;2022-12-20T01:32:25;8.67;;;5.63;;
5125;SDS011;63008;53.112;8.896;2022-12-20T01:34:26;8.83;;;5.70;;
5125;SDS011;63008;53.112;8.896;2022-12-20T01:36:29;6.87;;;5.27;;
5125;SDS011;63008;53.112;8.896;2022-12-20T01:38:32;5.23;;;4.73;;
5125;SDS011;63008;53.112;8.896;2022-12-20T01:40:34;7.40;;;4.90;;
5125;SDS011;63008;53.112;8.896;2022-12-20T01:42:38;7.10;;;5.07;;
5125;SDS011;63008;53.112;8.896;2022-12-20T01:46:44;6.10;;;4.50;;
5125;SDS011;63008;53.112;8.896;2022-12-20T01:48:49;5.30;;;4.50;;
5125;SDS011;63008;53.112;8.896;2022-12-20T01:51:00;5.23;;;4.73;;
5125;SDS011;63008;53.112;8.896;2022-12-20T01:53:02;6.23;;;5.37;;
5125;SDS011;63008;53.112;8.896;2022-12-20T01:55:06;5.93;;;4.93;;
5125;SDS011;63008;53.112;8.896;2022-12-20T01:57:16;5.30;;;4.60;;
5125;SDS011;63008;53.112;8.896;2022-12-20T01:59:20;6.90;;;5.33;;
5125;SDS011;63008;53.112;8.896;2022-12-20T02:01:22;5.33;;;4.80;;
5125;SDS011;63008;53.112;8.896;2022-12-20T02:03:24;7.93;;;5.00;;
5125;SDS011;63008;53.112;8.896;2022-12-20T02:05:25;7.10;;;5.00;;
5125;SDS011;63008;53.112;8.896;2022-12-20T02:07:27;9.67;;;5.20;;
5125;SDS011;63008;53.112;8.896;2022-12-20T02:09:31;6.03;;;5.40;;
5125;SDS011;63008;53.112;8.896;2022-12-20T02:16:04;7.43;;;4.80;;
5125;SDS011;63008;53.112;8.896;2022-12-20T02:21:21;7.10;;;5.23;;
5125;SDS011;63008;53.112;8.896;2022-12-20T02:30:11;6.83;;;5.37;;
5125;SDS011;63008;53.112;8.896;2022-12-20T02:32:16;6.73;;;5.23;;
5125;SDS011;63008;53.112;8.896;2022-12-20T02:34:23;6.20;;;4.97;;
5125;SDS011;63008;53.112;8.896;2022-12-20T02:36:25;10.20;;;5.60;;
5125;SDS011;63008;53.112;8.896;2022-12-20T02:40:39;5.23;;;4.70;;
5125;SDS011;63008;53.112;8.896;2022-12-20T02:42:41;10.03;;;5.53;;
5125;SDS011;63008;53.112;8.896;2022-12-20T02:44:46;5.57;;;4.97;;
5125;SDS011;63008;53.112;8.896;2022-12-20T02:47:17;7.03;;;4.80;;
5125;SDS011;63008;53.112;8.896;2022-12-20T02:49:25;8.00;;;4.73;;
5125;SDS011;63008;53.112;8.896;2022-12-20T02:51:30;6.70;;;5.33;;
5125;SDS011;63008;53.112;8.896;2022-12-20T02:53:32;5.47;;;4.97;;
5125;SDS011;63008;53.112;8.896;2022-12-20T02:57:55;8.53;;;4.53;;
5125;SDS011;63008;53.112;8.896;2022-12-20T03:00:07;6.03;;;5.00;;
5125;SDS011;63008;53.112;8.896;2022-12-20T03:02:13;6.23;;;4.33;;
5125;SDS011;63008;53.112;8.896;2022-12-20T03:04:14;5.33;;;4.60;;
5125;SDS011;63008;53.112;8.896;2022-12-20T03:06:17;5.40;;;5.00;;
5125;SDS011;63008;53.112;8.896;2022-12-20T03:08:18;7.60;;;5.10;;
5125;SDS011;63008;53.112;8.896;2022-12-20T03:10:21;5.67;;;4.40;;
5125;SDS011;63008;53.112;8.896;2022-12-20T03:12:22;4.80;;;4.37;;
5125;SDS011;63008;53.112;8.896;2022-12-20T03:14:23;6.70;;;4.40;;
5125;SDS011;63008;53.112;8.896;2022-12-20T03:16:24;7.27;;;4.33;;
5125;SDS011;63008;53.112;8.896;2022-12-20T03:18:25;6.47;;;4.90;;
5125;SDS011;63008;53.112;8.896;2022-12-20T03:20:27;4.60;;;4.20;;
5125;SDS011;63008;53.112;8.896;2022-12-20T03:22:28;6.23;;;4.30;;
5125;SDS011;63008;53.112;8.896;2022-12-20T03:24:29;6.73;;;5.20;;
5125;SDS011;63008;53.112;8.896;2022-12-20T03:26:30;8.80;;;4.60;;
5125;SDS011;63008;53.112;8.896;2022-12-20T03:28:31;8.40;;;4.43;;
5125;SDS011;63008;53.112;8.896;2022-12-20T03:30:31;5.83;;;4.77;;
5125;SDS011;63008;53.112;8.896;2022-12-20T03:32:33;5.10;;;4.50;;
5125;SDS011;63008;53.112;8.896;2022-12-20T03:34:34;6.60;;;4.37;;
5125;SDS011;63008;53.112;8.896;2022-12-20T03:36:35;11.43;;;4.23;;
5125;SDS011;63008;53.112;8.896;2022-12-20T03:38:35;9.37;;;4.80;;
5125;SDS011;63008;53.112;8.896;2022-12-20T03:40:36;7.90;;;4.30;;
5125;SDS011;63008;53.112;8.896;2022-12-20T03:42:37;6.93;;;4.60;;
5125;SDS011;63008;53.112;8.896;2022-12-20T03:44:38;4.27;;;3.93;;
5125;SDS011;63008;53.112;8.896;2022-12-20T03:46:39;5.70;;;4.40;;
5125;SDS011;63008;53.112;8.896;2022-12-20T03:48:40;5.00;;;4.47;;
5125;SDS011;63008;53.112;8.896;2022-12-20T03:50:41;9.20;;;4.73;;
5125;SDS011;63008;53.112;8.896;2022-12-20T03:52:42;4.90;;;4.30;;
5125;SDS011;63008;53.112;8.896;2022-12-20T03:54:43;4.43;;;4.03;;
5125;SDS011;63008;53.112;8.896;2022-12-20T03:56:45;5.20;;;4.07;;
5125;SDS011;63008;53.112;8.896;2022-12-20T03:58:45;4.60;;;4.13;;
5125;SDS011;63008;53.112;8.896;2022-12-20T04:00:47;4.33;;;3.93;;
5125;SDS011;63008;53.112;8.896;2022-12-20T04:02:48;4.23;;;3.83;;
5125;SDS011;63008;53.112;8.896;2022-12-20T04:04:49;5.90;;;4.00;;
5125;SDS011;63008;53.112;8.896;2022-12-20T04:06:50;4.10;;;3.80;;
5125;SDS011;63008;53.112;8.896;2022-12-20T04:08:51;6.73;;;4.90;;
5125;SDS011;63008;53.112;8.896;2022-12-20T04:10:52;4.60;;;4.20;;
5125;SDS011;63008;53.112;8.896;2022-12-20T04:13:11;5.17;;;3.87;;
5125;SDS011;63008;53.112;8.896;2022-12-20T04:15:12;9.63;;;4.70;;
5125;SDS011;63008;53.112;8.896;2022-12-20T04:17:13;4.17;;;3.77;;
5125;SDS011;63008;53.112;8.896;2022-12-20T04:19:14;6.90;;;4.53;;
5125;SDS011;63008;53.112;8.896;2022-12-20T04:21:20;4.37;;;3.97;;
5125;SDS011;63008;53.112;8.896;2022-12-20T04:23:22;4.80;;;4.30;;
5125;SDS011;63008;53.112;8.896;2022-12-20T04:25:23;4.90;;;4.33;;
5125;SDS011;63008;53.112;8.896;2022-12-20T04:27:24;4.77;;;4.23;;
5125;SDS011;63008;53.112;8.896;2022-12-20T04:29:25;5.13;;;4.20;;
5125;SDS011;63008;53.112;8.896;2022-12-20T04:31:26;14.40;;;4.70;;
5125;SDS011;63008;53.112;8.896;2022-12-20T04:33:27;4.37;;;4.00;;
5125;SDS011;63008;53.112;8.896;2022-12-20T04:35:28;4.80;;;4.40;;
5125;SDS011;63008;53.112;8.896;2022-12-20T04:37:29;4.57;;;3.83;;
5125;SDS011;63008;53.112;8.896;2022-12-20T04:39:30;4.93;;;4.43;;
5125;SDS011;63008;53.112;8.896;2022-12-20T04:41:31;5.87;;;4.70;;
5125;SDS011;63008;53.112;8.896;2022-12-20T04:43:32;6.47;;;5.03;;
5125;SDS011;63008;53.112;8.896;2022-12-20T04:45:33;6.23;;;4.97;;
5125;SDS011;63008;53.112;8.896;2022-12-20T04:47:34;4.60;;;3.50;;
5125;SDS011;63008;53.112;8.896;2022-12-20T04:49:35;5.30;;;4.80;;
5125;SDS011;63008;53.112;8.896;2022-12-20T04:51:36;14.13;;;4.40;;
5125;SDS011;63008;53.112;8.896;2022-12-20T04:53:37;5.50;;;5.00;;
5125;SDS011;63008;53.112;8.896;2022-12-20T04:55:47;5.30;;;4.80;;
5125;SDS011;63008;53.112;8.896;2022-12-20T04:57:48;6.40;;;5.53;;
5125;SDS011;63008;53.112;8.896;2022-12-20T04:59:49;7.20;;;4.60;;
5125;SDS011;63008;53.112;8.896;2022-12-20T05:01:50;5.70;;;4.80;;
5125;SDS011;63008;53.112;8.896;2022-12-20T05:03:51;6.23;;;4.57;;
5125;SDS011;63008;53.112;8.896;2022-12-20T05:05:52;10.13;;;4.90;;
5125;SDS011;63008;53.112;8.896;2022-12-20T05:07:53;6.90;;;5.20;;
5125;SDS011;63008;53.112;8.896;2022-12-20T05:09:54;6.43;;;4.60;;
5125;SDS011;63008;53.112;8.896;2022-12-20T05:11:55;9.10;;;4.63;;
5125;SDS011;63008;53.112;8.896;2022-12-20T05:13:56;5.10;;;4.60;;
5125;SDS011;63008;53.112;8.896;2022-12-20T05:15:57;6.73;;;4.13;;
5125;SDS011;63008;53.112;8.896;2022-12-20T05:17:59;8.53;;;4.83;;
5125;SDS011;63008;53.112;8.896;2022-12-20T05:20:00;8.77;;;4.50;;
5125;SDS011;63008;53.112;8.896;2022-12-20T05:22:00;10.77;;;4.53;;
5125;SDS011;63008;53.112;8.896;2022-12-20T05:24:20;4.50;;;4.10;;
5125;SDS011;63008;53.112;8.896;2022-12-20T05:26:39;6.60;;;4.87;;
5125;SDS011;63008;53.112;8.896;2022-12-20T05:28:40;9.33;;;5.30;;
5125;SDS011;63008;53.112;8.896;2022-12-20T05:30:44;5.53;;;4.67;;
5125;SDS011;63008;53.112;8.896;2022-12-20T05:32:45;7.03;;;4.80;;
5125;SDS011;63008;53.112;8.896;2022-12-20T05:34:46;9.10;;;5.77;;
5125;SDS011;63008;53.112;8.896;2022-12-20T05:36:47;8.03;;;5.50;;
5125;SDS011;63008;53.112;8.896;2022-12-20T05:38:48;8.23;;;4.60;;
5125;SDS011;63008;53.112;8.896;2022-12-20T05:40:49;6.97;;;5.00;;
5125;SDS011;63008;53.112;8.896;2022-12-20T05:42:50;15.17;;;6.50;;
5125;SDS011;63008;53.112;8.896;2022-12-20T05:44:51;11.30;;;5.77;;
5125;SDS011;63008;53.112;8.896;2022-12-20T05:46:52;6.00;;;4.97;;
5125;SDS011;63008;53.112;8.896;2022-12-20T05:48:53;6.03;;;5.53;;
5125;SDS011;63008;53.112;8.896;2022-12-20T05:50:54;5.67;;;5.17;;
5125;SDS011;63008;53.112;8.896;2022-12-20T05:52:55;8.33;;;6.43;;
5125;SDS011;63008;53.112;8.896;2022-12-20T05:54:56;6.37;;;5.47;;
5125;SDS011;63008;53.112;8.896;2022-12-20T05:56:57;6.30;;;5.70;;
5125;SDS011;63008;53.112;8.896;2022-12-20T05:58:58;10.23;;;6.03;;
5125;SDS011;63008;53.112;8.896;2022-12-20T06:01:00;11.20;;;5.93;;
5125;SDS011;63008;53.112;8.896;2022-12-20T06:03:03;8.90;;;6.20;;
5125;SDS011;63008;53.112;8.896;2022-12-20T06:05:04;10.93;;;6.00;;
5125;SDS011;63008;53.112;8.896;2022-12-20T06:07:05;8.83;;;6.33;;
5125;SDS011;63008;53.112;8.896;2022-12-20T06:09:06;6.03;;;5.50;;
5125;SDS011;63008;53.112;8.896;2022-12-20T06:11:11;7.40;;;5.33;;
5125;SDS011;63008;53.112;8.896;2022-12-20T06:13:13;7.73;;;6.37;;
5125;SDS011;63008;53.112;8.896;2022-12-20T06:15:14;9.20;;;6.13;;
5125;SDS011;63008;53.112;8.896;2022-12-20T06:17:15;6.90;;;6.10;;
5125;SDS011;63008;53.112;8.896;2022-12-20T06:19:16;6.27;;;5.70;;
5125;SDS011;63008;53.112;8.896;2022-12-20T06:21:17;7.93;;;6.50;;
5125;SDS011;63008;53.112;8.896;2022-12-20T06:23:18;7.47;;;6.10;;
5125;SDS011;63008;53.112;8.896;2022-12-20T06:25:19;6.93;;;6.20;;
5125;SDS011;63008;53.112;8.896;2022-12-20T06:27:20;7.80;;;6.23;;
5125;SDS011;63008;53.112;8.896;2022-12-20T06:29:22;9.10;;;7.23;;
5125;SDS011;63008;53.112;8.896;2022-12-20T06:31:24;8.10;;;6.17;;
5125;SDS011;63008;53.112;8.896;2022-12-20T06:33:25;6.93;;;6.27;;
5125;SDS011;63008;53.112;8.896;2022-12-20T06:35:26;8.17;;;6.47;;
5125;SDS011;63008;53.112;8.896;2022-12-20T06:37:27;10.63;;;7.60;;
5125;SDS011;63008;53.112;8.896;2022-12-20T06:39:28;9.67;;;7.70;;
5125;SDS011;63008;53.112;8.896;2022-12-20T06:41:29;14.10;;;7.97;;
5125;SDS011;63008;53.112;8.896;2022-12-20T06:43:30;11.50;;;6.63;;
5125;SDS011;63008;53.112;8.896;2022-12-20T06:45:31;9.53;;;6.80;;
5125;SDS011;63008;53.112;8.896;2022-12-20T06:47:32;9.37;;;7.00;;
5125;SDS011;63008;53.112;8.896;2022-12-20T06:49:33;11.93;;;7.30;;
5125;SDS011;63008;53.112;8.896;2022-12-20T06:51:34;15.07;;;6.70;;
5125;SDS011;63008;53.112;8.896;2022-12-20T06:53:35;7.40;;;6.37;;
5125;SDS011;63008;53.112;8.896;2022-12-20T06:55:37;7.17;;;6.47;;
5125;SDS011;63008;53.112;8.896;2022-12-20T06:57:38;7.40;;;6.70;;
5125;SDS011;63008;53.112;8.896;2022-12-20T06:59:39;10.67;;;6.67;;
5125;SDS011;63008;53.112;8.896;2022-12-20T07:01:40;8.00;;;6.17;;
5125;SDS011;63008;53.112;8.896;2022-12-20T07:03:41;8.17;;;6.07;;
5125;SDS011;63008;53.112;8.896;2022-12-20T07:05:42;10.00;;;6.60;;
5125;SDS011;63008;53.112;8.896;2022-12-20T07:07:43;8.67;;;5.53;;
5125;SDS011;63008;53.112;8.896;2022-12-20T07:09:44;6.83;;;6.20;;
5125;SDS011;63008;53.112;8.896;2022-12-20T07:11:45;10.40;;;6.47;;
5125;SDS011;63008;53.112;8.896;2022-12-20T07:13:46;9.10;;;5.90;;
5125;SDS011;63008;53.112;8.896;2022-12-20T07:15:47;6.37;;;5.47;;
5125;SDS011;63008;53.112;8.896;2022-12-20T07:17:48;7.33;;;5.73;;
5125;SDS011;63008;53.112;8.896;2022-12-20T07:19:52;5.70;;;5.10;;
5125;SDS011;63008;53.112;8.896;2022-12-20T07:21:53;5.63;;;4.93;;
5125;SDS011;63008;53.112;8.896;2022-12-20T07:23:54;6.90;;;5.33;;
5125;SDS011;63008;53.112;8.896;2022-12-20T07:25:56;5.80;;;5.30;;
5125;SDS011;63008;53.112;8.896;2022-12-20T07:27:58;5.77;;;4.80;;
5125;SDS011;63008;53.112;8.896;2022-12-20T07:29:59;8.87;;;4.90;;
5125;SDS011;63008;53.112;8.896;2022-12-20T07:32:01;10.23;;;5.50;;
5125;SDS011;63008;53.112;8.896;2022-12-20T07:34:02;9.53;;;5.53;;
5125;SDS011;63008;53.112;8.896;2022-12-20T07:36:04;7.20;;;5.13;;
5125;SDS011;63008;53.112;8.896;2022-12-20T07:38:07;5.63;;;5.07;;
5125;SDS011;63008;53.112;8.896;2022-12-20T07:40:09;7.20;;;5.43;;
5125;SDS011;63008;53.112;8.896;2022-12-20T07:42:11;6.83;;;4.87;;
5125;SDS011;63008;53.112;8.896;2022-12-20T07:44:12;8.30;;;4.90;;
5125;SDS011;63008;53.112;8.896;2022-12-20T07:46:14;12.50;;;4.53;;
5125;SDS011;63008;53.112;8.896;2022-12-20T07:48:15;6.57;;;5.20;;
5125;SDS011;63008;53.112;8.896;2022-12-20T07:50:16;8.10;;;5.40;;
5125;SDS011;63008;53.112;8.896;2022-12-20T07:52:18;10.00;;;5.53;;
5125;SDS011;63008;53.112;8.896;2022-12-20T07:54:27;7.33;;;5.70;;
5125;SDS011;63008;53.112;8.896;2022-12-20T07:56:31;5.90;;;5.00;;
5125;SDS011;63008;53.112;8.896;2022-12-20T07:58:35;7.07;;;4.70;;
5125;SDS011;63008;53.112;8.896;2022-12-20T08:00:39;5.23;;;4.73;;
5125;SDS011;63008;53.112;8.896;2022-12-20T08:02:42;4.93;;;4.47;;
5125;SDS011;63008;53.112;8.896;2022-12-20T08:04:50;6.53;;;4.67;;
5125;SDS011;63008;53.112;8.896;2022-12-20T08:06:53;5.37;;;4.33;;
5125;SDS011;63008;53.112;8.896;2022-12-20T08:08:59;8.27;;;4.87;;
5125;SDS011;63008;53.112;8.896;2022-12-20T08:11:03;5.60;;;4.50;;
5125;SDS011;63008;53.112;8.896;2022-12-20T08:13:08;4.87;;;4.47;;
5125;SDS011;63008;53.112;8.896;2022-12-20T08:15:09;5.43;;;4.10;;
5125;SDS011;63008;53.112;8.896;2022-12-20T08:17:11;5.20;;;4.20;;
5125;SDS011;63008;53.112;8.896;2022-12-20T08:19:12;5.17;;;4.27;;
5125;SDS011;63008;53.112;8.896;2022-12-20T08:21:13;5.87;;;4.97;;
5125;SDS011;63008;53.112;8.896;2022-12-20T08:23:14;5.90;;;3.80;;
5125;SDS011;63008;53.112;8.896;2022-12-20T08:25:15;4.70;;;4.30;;
5125;SDS011;63008;53.112;8.896;2022-12-20T08:27:16;4.90;;;4.50;;
5125;SDS011;63008;53.112;8.896;2022-12-20T08:29:17;4.43;;;3.93;;
5125;SDS011;63008;53.112;8.896;2022-12-20T08:31:18;4.93;;;4.07;;
5125;SDS011;63008;53.112;8.896;2022-12-20T08:33:19;4.17;;;3.87;;
5125;SDS011;63008;53.112;8.896;2022-12-20T08:35:20;8.03;;;4.40;;
5125;SDS011;63008;53.112;8.896;2022-12-20T08:37:22;6.80;;;4.80;;
5125;SDS011;63008;53.112;8.896;2022-12-20T08:39:23;5.63;;;4.47;;
5125;SDS011;63008;53.112;8.896;2022-12-20T08:41:24;8.73;;;4.50;;
5125;SDS011;63008;53.112;8.896;2022-12-20T08:43:25;5.70;;;3.97;;
5125;SDS011;63008;53.112;8.896;2022-12-20T08:45:27;7.60;;;4.40;;
5125;SDS011;63008;53.112;8.896;2022-12-20T08:47:28;10.47;;;5.30;;
5125;SDS011;63008;53.112;8.896;2022-12-20T08:49:30;6.20;;;4.70;;
5125;SDS011;63008;53.112;8.896;2022-12-20T08:51:31;5.33;;;4.33;;
5125;SDS011;63008;53.112;8.896;2022-12-20T08:53:32;4.97;;;4.47;;
5125;SDS011;63008;53.112;8.896;2022-12-20T08:55:34;5.13;;;4.57;;
5125;SDS011;63008;53.112;8.896;2022-12-20T08:57:35;5.00;;;4.27;;
5125;SDS011;63008;53.112;8.896;2022-12-20T08:59:36;5.10;;;4.37;;
5125;SDS011;63008;53.112;8.896;2022-12-20T09:01:37;4.10;;;3.83;;
5125;SDS011;63008;53.112;8.896;2022-12-20T09:03:38;8.63;;;4.40;;
5125;SDS011;63008;53.112;8.896;2022-12-20T09:05:42;6.67;;;4.10;;
5125;SDS011;63008;53.112;8.896;2022-12-20T09:07:45;4.40;;;3.80;;
5125;SDS011;63008;53.112;8.896;2022-12-20T09:09:46;5.47;;;3.70;;
5125;SDS011;63008;53.112;8.896;2022-12-20T09:11:47;4.43;;;3.50;;
5125;SDS011;63008;53.112;8.896;2022-12-20T09:13:48;10.80;;;4.40;;
5125;SDS011;63008;53.112;8.896;2022-12-20T09:15:51;4.37;;;3.97;;
5125;SDS011;63008;53.112;8.896;2022-12-20T09:17:52;4.53;;;4.07;;
5125;SDS011;63008;53.112;8.896;2022-12-20T09:19:53;4.13;;;3.63;;
5125;SDS011;63008;53.112;8.896;2022-12-20T09:21:54;6.33;;;4.10;;
5125;SDS011;63008;53.112;8.896;2022-12-20T09:23:55;4.37;;;3.77;;
5125;SDS011;63008;53.112;8.896;2022-12-20T09:26:00;5.60;;;4.00;;
5125;SDS011;63008;53.112;8.896;2022-12-20T09:28:04;3.90;;;3.60;;
5125;SDS011;63008;53.112;8.896;2022-12-20T09:30:05;5.83;;;3.80;;
5125;SDS011;63008;53.112;8.896;2022-12-20T09:32:07;3.87;;;3.50;;
5125;SDS011;63008;53.112;8.896;2022-12-20T09:34:08;4.57;;;3.70;;
5125;SDS011;63008;53.112;8.896;2022-12-20T09:36:10;4.60;;;3.93;;
5125;SDS011;63008;53.112;8.896;2022-12-20T09:38:12;6.67;;;4.37;;
5125;SDS011;63008;53.112;8.896;2022-12-20T09:40:16;4.90;;;4.00;;
5125;SDS011;63008;53.112;8.896;2022-12-20T09:42:21;7.33;;;4.03;;
5125;SDS011;63008;53.112;8.896;2022-12-20T09:44:30;7.50;;;3.70;;
5125;SDS011;63008;53.112;8.896;2022-12-20T09:46:34;5.03;;;3.63;;
5125;SDS011;63008;53.112;8.896;2022-12-20T09:48:37;6.13;;;3.97;;
5125;SDS011;63008;53.112;8.896;2022-12-20T09:50:44;6.73;;;4.10;;
5125;SDS011;63008;53.112;8.896;2022-12-20T09:53:02;5.20;;;3.67;;
5125;SDS011;63008;53.112;8.896;2022-12-20T09:55:49;4.47;;;3.50;;
5125;SDS011;63008;53.112;8.896;2022-12-20T10:00:24;4.83;;;4.10;;
5125;SDS011;63008;53.112;8.896;2022-12-20T10:02:25;4.63;;;3.83;;
5125;SDS011;63008;53.112;8.896;2022-12-20T10:04:29;9.23;;;4.00;;
5125;SDS011;63008;53.112;8.896;2022-12-20T10:06:39;8.27;;;3.80;;
5125;SDS011;63008;53.112;8.896;2022-12-20T10:09:05;5.53;;;3.70;;
5125;SDS011;63008;53.112;8.896;2022-12-20T10:11:27;5.93;;;3.90;;
5125;SDS011;63008;53.112;8.896;2022-12-20T10:16:41;5.80;;;3.90;;
5125;SDS011;63008;53.112;8.896;2022-12-20T10:21:17;5.60;;;3.70;;
5125;SDS011;63008;53.112;8.896;2022-12-20T10:23:25;6.73;;;3.87;;
5125;SDS011;63008;53.112;8.896;2022-12-20T10:25:33;4.27;;;3.87;;
5125;SDS011;63008;53.112;8.896;2022-12-20T10:27:34;4.20;;;3.80;;
5125;SDS011;63008;53.112;8.896;2022-12-20T10:29:39;5.13;;;3.83;;
5125;SDS011;63008;53.112;8.896;2022-12-20T10:31:41;4.97;;;3.30;;
5125;SDS011;63008;53.112;8.896;2022-12-20T10:33:43;3.97;;;3.57;;
5125;SDS011;63008;53.112;8.896;2022-12-20T10:35:45;6.63;;;3.93;;
5125;SDS011;63008;53.112;8.896;2022-12-20T10:37:57;6.33;;;3.83;;
5125;SDS011;63008;53.112;8.896;2022-12-20T10:39:58;7.20;;;3.63;;
5125;SDS011;63008;53.112;8.896;2022-12-20T10:41:59;4.83;;;4.13;;
5125;SDS011;63008;53.112;8.896;2022-12-20T10:44:00;4.37;;;3.10;;
5125;SDS011;63008;53.112;8.896;2022-12-20T10:46:05;7.50;;;3.47;;
5125;SDS011;63008;53.112;8.896;2022-12-20T10:48:25;4.30;;;3.27;;
5125;SDS011;63008;53.112;8.896;2022-12-20T10:50:31;5.67;;;4.03;;
5125;SDS011;63008;53.112;8.896;2022-12-20T10:52:33;4.90;;;3.83;;
5125;SDS011;63008;53.112;8.896;2022-12-20T10:54:35;7.87;;;3.97;;
5125;SDS011;63008;53.112;8.896;2022-12-20T10:56:37;11.67;;;3.10;;
5125;SDS011;63008;53.112;8.896;2022-12-20T11:01:13;7.57;;;3.60;;
5125;SDS011;63008;53.112;8.896;2022-12-20T11:03:19;5.87;;;3.97;;
5125;SDS011;63008;53.112;8.896;2022-12-20T11:05:22;5.80;;;3.63;;
5125;SDS011;63008;53.112;8.896;2022-12-20T11:07:24;14.63;;;4.70;;
5125;SDS011;63008;53.112;8.896;2022-12-20T11:09:29;4.90;;;3.37;;
5125;SDS011;63008;53.112;8.896;2022-12-20T11:11:32;7.63;;;3.93;;
5125;SDS011;63008;53.112;8.896;2022-12-20T11:13:33;4.87;;;4.00;;
5125;SDS011;63008;53.112;8.896;2022-12-20T11:15:35;6.40;;;3.80;;
5125;SDS011;63008;53.112;8.896;2022-12-20T11:17:37;5.93;;;3.60;;
5125;SDS011;63008;53.112;8.896;2022-12-20T11:24:31;4.23;;;3.37;;
5125;SDS011;63008;53.112;8.896;2022-12-20T11:27:01;4.53;;;3.50;;
5125;SDS011;63008;53.112;8.896;2022-12-20T11:31:47;8.80;;;3.87;;
5125;SDS011;63008;53.112;8.896;2022-12-20T11:37:16;5.33;;;3.10;;
5125;SDS011;63008;53.112;8.896;2022-12-20T11:39:34;3.93;;;3.53;;
5125;SDS011;63008;53.112;8.896;2022-12-20T11:53:47;3.80;;;3.50;;
5125;SDS011;63008;53.112;8.896;2022-12-20T11:56:09;4.40;;;3.87;;
5125;SDS011;63008;53.112;8.896;2022-12-20T11:58:20;6.13;;;4.20;;
5125;SDS011;63008;53.112;8.896;2022-12-20T12:00:28;5.80;;;4.80;;
5125;SDS011;63008;53.112;8.896;2022-12-20T12:02:34;10.90;;;5.10;;
5125;SDS011;63008;53.112;8.896;2022-12-20T12:04:42;5.03;;;4.30;;
5125;SDS011;63008;53.112;8.896;2022-12-20T12:06:55;8.60;;;4.23;;
5125;SDS011;63008;53.112;8.896;2022-12-20T12:09:07;8.30;;;5.57;;
5125;SDS011;63008;53.112;8.896;2022-12-20T12:11:31;8.10;;;4.70;;
5125;SDS011;63008;53.112;8.896;2022-12-20T12:13:38;9.00;;;4.63;;
5125;SDS011;63008;53.112;8.896;2022-12-20T12:18:13;11.47;;;5.17;;
5125;SDS011;63008;53.112;8.896;2022-12-20T12:22:45;6.17;;;5.20;;
5125;SDS011;63008;53.112;8.896;2022-12-20T12:24:51;5.70;;;5.10;;
5125;SDS011;63008;53.112;8.896;2022-12-20T12:26:57;6.20;;;5.60;;
5125;SDS011;63008;53.112;8.896;2022-12-20T12:29:00;8.03;;;5.90;;
5125;SDS011;63008;53.112;8.896;2022-12-20T12:31:04;7.13;;;5.03;;
5125;SDS011;63008;53.112;8.896;2022-12-20T12:33:14;7.93;;;4.97;;
5125;SDS011;63008;53.112;8.896;2022-12-20T12:35:29;5.70;;;4.30;;
5125;SDS011;63008;53.112;8.896;2022-12-20T12:38:02;6.53;;;5.77;;
5125;SDS011;63008;53.112;8.896;2022-12-20T12:43:06;5.03;;;4.50;;
5125;SDS011;63008;53.112;8.896;2022-12-20T12:45:20;10.83;;;5.70;;
5125;SDS011;63008;53.112;8.896;2022-12-20T12:47:35;7.43;;;5.53;;
5125;SDS011;63008;53.112;8.896;2022-12-20T12:49:39;7.50;;;5.47;;
5125;SDS011;63008;53.112;8.896;2022-12-20T12:51:41;8.50;;;5.73;;
5125;SDS011;63008;53.112;8.896;2022-12-20T12:53:51;8.40;;;5.30;;
5125;SDS011;63008;53.112;8.896;2022-12-20T12:55:53;12.10;;;6.43;;
5125;SDS011;63008;53.112;8.896;2022-12-20T12:57:56;9.20;;;5.53;;
5125;SDS011;63008;53.112;8.896;2022-12-20T12:59:58;8.07;;;5.70;;
5125;SDS011;63008;53.112;8.896;2022-12-20T13:04:07;7.17;;;6.20;;
5125;SDS011;63008;53.112;8.896;2022-12-20T13:08:23;6.23;;;5.63;;
5125;SDS011;63008;53.112;8.896;2022-12-20T13:14:50;6.67;;;6.07;;
5125;SDS011;63008;53.112;8.896;2022-12-20T13:19:10;8.10;;;5.80;;
5125;SDS011;63008;53.112;8.896;2022-12-20T13:21:16;8.80;;;4.80;;
5125;SDS011;63008;53.112;8.896;2022-12-20T13:23:31;8.93;;;5.40;;
5125;SDS011;63008;53.112;8.896;2022-12-20T13:25:34;8.20;;;5.63;;
5125;SDS011;63008;53.112;8.896;2022-12-20T13:27:40;6.83;;;5.70;;
5125;SDS011;63008;53.112;8.896;2022-12-20T13:29:51;5.27;;;4.87;;
5125;SDS011;63008;53.112;8.896;2022-12-20T13:31:55;10.27;;;5.70;;
5125;SDS011;63008;53.112;8.896;2022-12-20T13:33:58;10.70;;;6.67;;
5125;SDS011;63008;53.112;8.896;2022-12-20T13:36:02;9.90;;;5.93;;
5125;SDS011;63008;53.112;8.896;2022-12-20T13:40:43;8.10;;;6.20;;
5125;SDS011;63008;53.112;8.896;2022-12-20T13:42:46;7.03;;;6.33;;
5125;SDS011;63008;53.112;8.896;2022-12-20T13:44:51;10.63;;;6.77;;
5125;SDS011;63008;53.112;8.896;2022-12-20T13:49:25;11.57;;;6.23;;
5125;SDS011;63008;53.112;8.896;2022-12-20T13:51:29;8.80;;;6.90;;
5125;SDS011;63008;53.112;8.896;2022-12-20T13:53:30;8.20;;;7.37;;